sensor_id;sensor_type;location;lat;lon;timestamp;P1;P2;P0
64861;PMS5003;62652;42.274;-71.436;2023-04-24T00:00:00;1.97;1.07;1.00
64861;PMS5003;62652;42.274;-71.436;2023-04-24T00:01:00;0.83;0.83;0.00
64861;PMS5003;62652;42.274;-71.436;2023-04-24T00:02:00;0.87;0.87;0.00
64861;PMS5003;62652;42.274;-71.436;2023-04-24T00:03:00;1.37;1.37;0.80
64861;PMS5003;62652;42.274;-71.436;2023-04-24T00:04:00;0.60;0.60;0.00
64861;PMS5003;62652;42.274;-71.436;2023-04-24T00:05:01;0.87;0.87;0.63
64861;PMS5003;62652;42.274;-71.436;2023-04-24T00:06:00;0.80;0.57;0.37
64861;PMS5003;62652;42.274;-71.436;2023-04-24T00:07:00;0.83;0.83;0.00
64861;PMS5003;62652;42.274;-71.436;2023-04-24T00:08:01;0.23;0.03;0.00
64861;PMS5003;62652;42.274;-71.436;2023-04-24T00:09:00;0.70;0.60;0.00
64861;PMS5003;62652;42.274;-71.436;2023-04-24T00:10:00;1.00;0.77;0.10
64861;PMS5003;62652;42.274;-71.436;2023-04-24T00:11:00;0.90;0.90;0.40
64861;PMS5003;62652;42.274;-71.436;2023-04-24T00:12:00;0.10;0.10;0.00
64861;PMS5003;62652;42.274;-71.436;2023-04-24T00:13:00;0.47;0.47;0.37
64861;PMS5003;62652;42.274;-71.436;2023-04-24T00:14:00;1.00;0.27;0.00
64861;PMS5003;62652;42.274;-71.436;2023-04-24T00:15:00;1.70;0.37;0.00
64861;PMS5003;62652;42.274;-71.436;2023-04-24T00:16:00;0.00;0.00;0.00
64861;PMS5003;62652;42.274;-71.436;2023-04-24T00:17:00;1.63;0.90;0.00
64861;PMS5003;62652;42.274;-71.436;2023-04-24T00:18:00;2.40;2.40;0.87
64861;PMS5003;62652;42.274;-71.436;2023-04-24T00:19:01;2.00;1.73;1.23
64861;PMS5003;62652;42.274;-71.436;2023-04-24T00:20:00;2.23;2.23;0.93
64861;PMS5003;62652;42.274;-71.436;2023-04-24T00:21:00;0.50;0.23;0.00
64861;PMS5003;62652;42.274;-71.436;2023-04-24T00:22:00;1.30;1.30;0.00
64861;PMS5003;62652;42.274;-71.436;2023-04-24T00:23:00;0.37;0.37;0.17
64861;PMS5003;62652;42.274;-71.436;2023-04-24T00:24:00;0.17;0.17;0.03
64861;PMS5003;62652;42.274;-71.436;2023-04-24T00:25:00;1.30;1.00;0.00
64861;PMS5003;62652;42.274;-71.436;2023-04-24T00:26:00;0.00;0.00;0.00
64861;PMS5003;62652;42.274;-71.436;2023-04-24T00:27:00;0.63;0.63;0.63
64861;PMS5003;62652;42.274;-71.436;2023-04-24T00:28:00;0.47;0.47;0.47
64861;PMS5003;62652;42.274;-71.436;2023-04-24T00:29:00;0.00;0.00;0.00
64861;PMS5003;62652;42.274;-71.436;2023-04-24T00:30:01;0.20;0.20;0.00
64861;PMS5003;62652;42.274;-71.436;2023-04-24T00:31:00;0.50;0.50;0.00
64861;PMS5003;62652;42.274;-71.436;2023-04-24T00:32:00;0.43;0.17;0.00
64861;PMS5003;62652;42.274;-71.436;2023-04-24T00:33:00;1.77;1.10;0.77
64861;PMS5003;62652;42.274;-71.436;2023-04-24T00:34:00;1.27;0.97;0.00
64861;PMS5003;62652;42.274;-71.436;2023-04-24T00:35:00;0.87;0.87;0.57
64861;PMS5003;62652;42.274;-71.436;2023-04-24T00:36:01;0.03;0.03;0.00
64861;PMS5003;62652;42.274;-71.436;2023-04-24T00:37:00;0.37;0.27;0.00
64861;PMS5003;62652;42.274;-71.436;2023-04-24T00:38:00;0.63;0.63;0.00
64861;PMS5003;62652;42.274;-71.436;2023-04-24T00:39:00;1.03;0.27;0.00
64861;PMS5003;62652;42.274;-71.436;2023-04-24T00:40:00;0.30;0.30;0.00
64861;PMS5003;62652;42.274;-71.436;2023-04-24T00:41:01;2.33;1.97;1.03
64861;PMS5003;62652;42.274;-71.436;2023-04-24T00:42:00;1.00;0.70;0.00
64861;PMS5003;62652;42.274;-71.436;2023-04-24T00:43:00;1.97;1.50;1.00
64861;PMS5003;62652;42.274;-71.436;2023-04-24T00:44:00;1.00;0.10;0.00
64861;PMS5003;62652;42.274;-71.436;2023-04-24T00:45:00;1.90;1.37;0.77
64861;PMS5003;62652;42.274;-71.436;2023-04-24T00:46:00;1.47;1.47;0.47
64861;PMS5003;62652;42.274;-71.436;2023-04-24T00:47:01;0.90;0.90;0.73
64861;PMS5003;62652;42.274;-71.436;2023-04-24T00:48:00;1.07;1.00;0.17
64861;PMS5003;62652;42.274;-71.436;2023-04-24T00:49:00;0.83;0.83;0.53
64861;PMS5003;62652;42.274;-71.436;2023-04-24T00:50:01;1.00;0.77;0.17
64861;PMS5003;62652;42.274;-71.436;2023-04-24T00:51:00;1.00;1.00;0.10
64861;PMS5003;62652;42.274;-71.436;2023-04-24T00:52:01;1.30;1.07;0.57
64861;PMS5003;62652;42.274;-71.436;2023-04-24T00:53:00;1.13;1.13;0.30
64861;PMS5003;62652;42.274;-71.436;2023-04-24T00:54:00;0.93;0.93;0.67
64861;PMS5003;62652;42.274;-71.436;2023-04-24T00:55:00;1.00;0.90;0.57
64861;PMS5003;62652;42.274;-71.436;2023-04-24T00:56:00;1.73;1.73;1.00
64861;PMS5003;62652;42.274;-71.436;2023-04-24T00:57:00;2.07;1.87;0.67
64861;PMS5003;62652;42.274;-71.436;2023-04-24T00:58:00;0.57;0.57;0.27
64861;PMS5003;62652;42.274;-71.436;2023-04-24T00:59:00;1.80;1.60;0.80
64861;PMS5003;62652;42.274;-71.436;2023-04-24T01:00:00;3.93;2.57;1.67
64861;PMS5003;62652;42.274;-71.436;2023-04-24T01:01:00;1.20;0.93;0.73
64861;PMS5003;62652;42.274;-71.436;2023-04-24T01:02:00;1.87;1.87;0.87
64861;PMS5003;62652;42.274;-71.436;2023-04-24T01:03:01;1.03;1.03;0.93
64861;PMS5003;62652;42.274;-71.436;2023-04-24T01:04:00;2.50;2.07;1.67
64861;PMS5003;62652;42.274;-71.436;2023-04-24T01:05:00;1.63;1.00;0.27
64861;PMS5003;62652;42.274;-71.436;2023-04-24T01:06:00;1.57;1.57;0.90
64861;PMS5003;62652;42.274;-71.436;2023-04-24T01:07:00;2.10;2.10;0.87
64861;PMS5003;62652;42.274;-71.436;2023-04-24T01:08:00;2.70;2.20;1.57
64861;PMS5003;62652;42.274;-71.436;2023-04-24T01:09:00;2.43;2.43;1.13
64861;PMS5003;62652;42.274;-71.436;2023-04-24T01:10:00;2.40;1.97;1.07
64861;PMS5003;62652;42.274;-71.436;2023-04-24T01:11:00;2.37;1.80;1.00
64861;PMS5003;62652;42.274;-71.436;2023-04-24T01:12:00;2.50;2.17;1.27
64861;PMS5003;62652;42.274;-71.436;2023-04-24T01:13:00;1.97;1.80;0.47
64861;PMS5003;62652;42.274;-71.436;2023-04-24T01:14:01;2.53;2.00;1.00
64861;PMS5003;62652;42.274;-71.436;2023-04-24T01:15:00;3.37;2.83;1.83
64861;PMS5003;62652;42.274;-71.436;2023-04-24T01:16:00;3.40;2.73;2.10
64861;PMS5003;62652;42.274;-71.436;2023-04-24T01:17:00;1.00;1.00;0.77
64861;PMS5003;62652;42.274;-71.436;2023-04-24T01:18:00;2.00;2.00;1.00
64861;PMS5003;62652;42.274;-71.436;2023-04-24T01:19:00;2.43;2.10;1.13
64861;PMS5003;62652;42.274;-71.436;2023-04-24T01:20:00;2.07;1.83;1.00
64861;PMS5003;62652;42.274;-71.436;2023-04-24T01:21:01;0.77;0.70;0.70
64861;PMS5003;62652;42.274;-71.436;2023-04-24T01:22:01;1.73;1.73;1.33
64861;PMS5003;62652;42.274;-71.436;2023-04-24T01:23:00;3.77;3.77;1.87
64861;PMS5003;62652;42.274;-71.436;2023-04-24T01:24:00;3.53;3.53;2.57
64861;PMS5003;62652;42.274;-71.436;2023-04-24T01:25:00;3.37;3.30;2.10
64861;PMS5003;62652;42.274;-71.436;2023-04-24T01:26:00;3.43;3.20;2.20
64861;PMS5003;62652;42.274;-71.436;2023-04-24T01:27:00;2.97;2.33;1.07
64861;PMS5003;62652;42.274;-71.436;2023-04-24T01:28:01;2.03;2.03;1.10
64861;PMS5003;62652;42.274;-71.436;2023-04-24T01:29:00;1.43;1.43;0.43
64861;PMS5003;62652;42.274;-71.436;2023-04-24T01:30:00;3.03;2.20;1.83
64861;PMS5003;62652;42.274;-71.436;2023-04-24T01:31:00;3.53;2.87;1.87
64861;PMS5003;62652;42.274;-71.436;2023-04-24T01:32:00;2.10;1.77;0.57
64861;PMS5003;62652;42.274;-71.436;2023-04-24T01:33:00;1.13;1.00;0.30
64861;PMS5003;62652;42.274;-71.436;2023-04-24T01:34:00;2.53;2.47;1.67
64861;PMS5003;62652;42.274;-71.436;2023-04-24T01:35:00;2.43;2.30;1.00
64861;PMS5003;62652;42.274;-71.436;2023-04-24T01:36:01;1.80;1.80;1.00
64861;PMS5003;62652;42.274;-71.436;2023-04-24T01:37:00;3.43;2.47;1.47
64861;PMS5003;62652;42.274;-71.436;2023-04-24T01:38:00;1.97;1.97;1.77
64861;PMS5003;62652;42.274;-71.436;2023-04-24T01:39:00;2.83;2.13;1.73
64861;PMS5003;62652;42.274;-71.436;2023-04-24T01:40:00;2.97;2.23;1.73
64861;PMS5003;62652;42.274;-71.436;2023-04-24T01:41:00;2.93;2.67;2.00
64861;PMS5003;62652;42.274;-71.436;2023-04-24T01:42:00;3.33;2.70;2.10
64861;PMS5003;62652;42.274;-71.436;2023-04-24T01:43:00;3.00;2.67;1.83
64861;PMS5003;62652;42.274;-71.436;2023-04-24T01:44:00;2.87;2.87;2.10
64861;PMS5003;62652;42.274;-71.436;2023-04-24T01:45:01;6.23;4.70;2.47
64861;PMS5003;62652;42.274;-71.436;2023-04-24T01:46:00;3.80;3.80;2.73
64861;PMS5003;62652;42.274;-71.436;2023-04-24T01:47:00;3.57;3.57;2.73
64861;PMS5003;62652;42.274;-71.436;2023-04-24T01:48:00;4.47;3.90;2.47
64861;PMS5003;62652;42.274;-71.436;2023-04-24T01:49:00;3.60;3.43;2.73
64861;PMS5003;62652;42.274;-71.436;2023-04-24T01:50:00;4.60;4.23;3.03
64861;PMS5003;62652;42.274;-71.436;2023-04-24T01:51:00;5.13;4.67;2.83
64861;PMS5003;62652;42.274;-71.436;2023-04-24T01:52:00;4.27;4.00;2.63
64861;PMS5003;62652;42.274;-71.436;2023-04-24T01:53:00;4.87;4.87;3.63
64861;PMS5003;62652;42.274;-71.436;2023-04-24T01:54:00;6.03;4.93;3.67
64861;PMS5003;62652;42.274;-71.436;2023-04-24T01:55:00;4.83;4.83;3.73
64861;PMS5003;62652;42.274;-71.436;2023-04-24T01:56:00;8.77;6.63;4.43
64861;PMS5003;62652;42.274;-71.436;2023-04-24T01:57:00;7.53;7.13;4.57
64861;PMS5003;62652;42.274;-71.436;2023-04-24T01:58:01;6.57;6.13;3.47
64861;PMS5003;62652;42.274;-71.436;2023-04-24T01:59:00;6.47;5.87;3.53
64861;PMS5003;62652;42.274;-71.436;2023-04-24T02:00:00;6.73;6.03;4.00
64861;PMS5003;62652;42.274;-71.436;2023-04-24T02:01:00;6.10;5.87;3.90
64861;PMS5003;62652;42.274;-71.436;2023-04-24T02:02:00;7.03;6.73;4.57
64861;PMS5003;62652;42.274;-71.436;2023-04-24T02:03:00;5.50;4.73;2.87
64861;PMS5003;62652;42.274;-71.436;2023-04-24T02:04:00;4.17;4.17;3.40
64861;PMS5003;62652;42.274;-71.436;2023-04-24T02:05:00;5.97;5.47;3.77
64861;PMS5003;62652;42.274;-71.436;2023-04-24T02:06:00;5.23;5.23;3.33
64861;PMS5003;62652;42.274;-71.436;2023-04-24T02:07:00;6.67;6.00;3.97
64861;PMS5003;62652;42.274;-71.436;2023-04-24T02:08:00;6.00;5.90;3.73
64861;PMS5003;62652;42.274;-71.436;2023-04-24T02:09:01;6.40;6.13;3.83
64861;PMS5003;62652;42.274;-71.436;2023-04-24T02:10:00;5.80;5.37;4.00
64861;PMS5003;62652;42.274;-71.436;2023-04-24T02:11:00;5.17;5.17;4.13
64861;PMS5003;62652;42.274;-71.436;2023-04-24T02:12:00;6.87;6.87;4.90
64861;PMS5003;62652;42.274;-71.436;2023-04-24T02:13:00;6.63;6.37;3.60
64861;PMS5003;62652;42.274;-71.436;2023-04-24T02:14:00;5.63;5.07;3.83
64861;PMS5003;62652;42.274;-71.436;2023-04-24T02:15:00;3.10;2.57;1.87
64861;PMS5003;62652;42.274;-71.436;2023-04-24T02:16:00;3.53;3.53;2.47
64861;PMS5003;62652;42.274;-71.436;2023-04-24T02:17:00;4.60;3.93;3.10
64861;PMS5003;62652;42.274;-71.436;2023-04-24T02:18:00;5.57;5.03;3.50
64861;PMS5003;62652;42.274;-71.436;2023-04-24T02:19:00;4.10;3.97;2.73
64861;PMS5003;62652;42.274;-71.436;2023-04-24T02:20:01;4.33;2.93;2.13
64861;PMS5003;62652;42.274;-71.436;2023-04-24T02:21:00;3.77;3.77;2.77
64861;PMS5003;62652;42.274;-71.436;2023-04-24T02:22:00;3.50;3.50;2.40
64861;PMS5003;62652;42.274;-71.436;2023-04-24T02:23:00;4.07;4.07;3.00
64861;PMS5003;62652;42.274;-71.436;2023-04-24T02:24:00;4.93;4.93;3.17
64861;PMS5003;62652;42.274;-71.436;2023-04-24T02:25:01;5.03;5.03;4.10
64861;PMS5003;62652;42.274;-71.436;2023-04-24T02:26:00;5.40;5.40;3.20
64861;PMS5003;62652;42.274;-71.436;2023-04-24T02:27:00;4.97;4.57;2.80
64861;PMS5003;62652;42.274;-71.436;2023-04-24T02:28:00;5.63;5.53;3.73
64861;PMS5003;62652;42.274;-71.436;2023-04-24T02:29:00;4.47;4.23;3.23
64861;PMS5003;62652;42.274;-71.436;2023-04-24T02:30:00;4.00;4.00;3.00
64861;PMS5003;62652;42.274;-71.436;2023-04-24T02:31:01;3.60;3.60;2.30
64861;PMS5003;62652;42.274;-71.436;2023-04-24T02:32:00;3.60;2.97;1.97
64861;PMS5003;62652;42.274;-71.436;2023-04-24T02:33:00;2.67;2.67;1.67
64861;PMS5003;62652;42.274;-71.436;2023-04-24T02:34:00;3.33;3.23;1.77
64861;PMS5003;62652;42.274;-71.436;2023-04-24T02:35:00;3.43;3.43;2.60
64861;PMS5003;62652;42.274;-71.436;2023-04-24T02:36:00;3.03;3.03;2.70
64861;PMS5003;62652;42.274;-71.436;2023-04-24T02:37:00;2.27;2.27;1.57
64861;PMS5003;62652;42.274;-71.436;2023-04-24T02:38:00;2.40;2.40;1.47
64861;PMS5003;62652;42.274;-71.436;2023-04-24T02:39:00;3.00;2.90;1.97
64861;PMS5003;62652;42.274;-71.436;2023-04-24T02:40:00;3.63;2.97;1.57
64861;PMS5003;62652;42.274;-71.436;2023-04-24T02:41:00;1.63;1.57;0.57
64861;PMS5003;62652;42.274;-71.436;2023-04-24T02:42:01;1.50;1.50;0.70
64861;PMS5003;62652;42.274;-71.436;2023-04-24T02:43:00;1.13;1.13;0.60
64861;PMS5003;62652;42.274;-71.436;2023-04-24T02:44:00;1.13;1.13;0.33
64861;PMS5003;62652;42.274;-71.436;2023-04-24T02:45:00;0.73;0.73;0.30
64861;PMS5003;62652;42.274;-71.436;2023-04-24T02:46:00;0.80;0.80;0.53
64861;PMS5003;62652;42.274;-71.436;2023-04-24T02:47:00;0.93;0.67;0.57
64861;PMS5003;62652;42.274;-71.436;2023-04-24T02:48:00;1.20;1.20;0.63
64861;PMS5003;62652;42.274;-71.436;2023-04-24T02:49:00;0.93;0.93;0.27
64861;PMS5003;62652;42.274;-71.436;2023-04-24T02:50:01;0.30;0.27;0.27
64861;PMS5003;62652;42.274;-71.436;2023-04-24T02:51:00;0.83;0.83;0.60
64861;PMS5003;62652;42.274;-71.436;2023-04-24T02:52:00;0.90;0.23;0.00
64861;PMS5003;62652;42.274;-71.436;2023-04-24T02:53:01;0.60;0.60;0.07
64861;PMS5003;62652;42.274;-71.436;2023-04-24T02:54:00;0.00;0.00;0.00
64861;PMS5003;62652;42.274;-71.436;2023-04-24T02:55:00;0.10;0.10;0.00
64861;PMS5003;62652;42.274;-71.436;2023-04-24T02:56:00;0.70;0.13;0.00
64861;PMS5003;62652;42.274;-71.436;2023-04-24T02:57:00;1.37;1.07;1.00
64861;PMS5003;62652;42.274;-71.436;2023-04-24T02:58:00;1.30;0.97;0.10
64861;PMS5003;62652;42.274;-71.436;2023-04-24T02:59:00;0.73;0.73;0.10
64861;PMS5003;62652;42.274;-71.436;2023-04-24T03:00:00;0.10;0.10;0.00
64861;PMS5003;62652;42.274;-71.436;2023-04-24T03:01:00;1.83;1.07;0.63
64861;PMS5003;62652;42.274;-71.436;2023-04-24T03:02:00;0.07;0.07;0.00
64861;PMS5003;62652;42.274;-71.436;2023-04-24T03:03:00;0.07;0.07;0.07
64861;PMS5003;62652;42.274;-71.436;2023-04-24T03:04:01;0.17;0.17;0.07
64861;PMS5003;62652;42.274;-71.436;2023-04-24T03:05:00;0.10;0.00;0.00
64861;PMS5003;62652;42.274;-71.436;2023-04-24T03:06:00;0.53;0.30;0.10
64861;PMS5003;62652;42.274;-71.436;2023-04-24T03:07:00;0.00;0.00;0.00
64861;PMS5003;62652;42.274;-71.436;2023-04-24T03:08:00;0.83;0.03;0.00
64861;PMS5003;62652;42.274;-71.436;2023-04-24T03:09:00;0.00;0.00;0.00
64861;PMS5003;62652;42.274;-71.436;2023-04-24T03:10:00;0.87;0.87;0.20
64861;PMS5003;62652;42.274;-71.436;2023-04-24T03:11:00;0.27;0.13;0.00
64861;PMS5003;62652;42.274;-71.436;2023-04-24T03:12:00;0.00;0.00;0.00
64861;PMS5003;62652;42.274;-71.436;2023-04-24T03:13:00;0.53;0.53;0.00
64861;PMS5003;62652;42.274;-71.436;2023-04-24T03:14:00;0.00;0.00;0.00
64861;PMS5003;62652;42.274;-71.436;2023-04-24T03:15:01;0.00;0.00;0.00
64861;PMS5003;62652;42.274;-71.436;2023-04-24T03:16:00;0.00;0.00;0.00
64861;PMS5003;62652;42.274;-71.436;2023-04-24T03:17:00;0.00;0.00;0.00
64861;PMS5003;62652;42.274;-71.436;2023-04-24T03:18:00;0.47;0.00;0.00
64861;PMS5003;62652;42.274;-71.436;2023-04-24T03:19:00;0.17;0.17;0.00
64861;PMS5003;62652;42.274;-71.436;2023-04-24T03:20:00;0.00;0.00;0.00
64861;PMS5003;62652;42.274;-71.436;2023-04-24T03:21:00;0.00;0.00;0.00
64861;PMS5003;62652;42.274;-71.436;2023-04-24T03:22:01;0.10;0.00;0.00
64861;PMS5003;62652;42.274;-71.436;2023-04-24T03:23:00;0.00;0.00;0.00
64861;PMS5003;62652;42.274;-71.436;2023-04-24T03:24:00;0.00;0.00;0.00
64861;PMS5003;62652;42.274;-71.436;2023-04-24T03:25:00;0.17;0.00;0.00
64861;PMS5003;62652;42.274;-71.436;2023-04-24T03:26:01;0.00;0.00;0.00
64861;PMS5003;62652;42.274;-71.436;2023-04-24T03:27:00;0.00;0.00;0.00
64861;PMS5003;62652;42.274;-71.436;2023-04-24T03:28:00;0.00;0.00;0.00
64861;PMS5003;62652;42.274;-71.436;2023-04-24T03:29:00;0.00;0.00;0.00
64861;PMS5003;62652;42.274;-71.436;2023-04-24T03:30:00;0.00;0.00;0.00
64861;PMS5003;62652;42.274;-71.436;2023-04-24T03:31:00;0.00;0.00;0.00
64861;PMS5003;62652;42.274;-71.436;2023-04-24T03:32:00;0.00;0.00;0.00
64861;PMS5003;62652;42.274;-71.436;2023-04-24T03:33:00;0.00;0.00;0.00
64861;PMS5003;62652;42.274;-71.436;2023-04-24T03:34:00;0.00;0.00;0.00
64861;PMS5003;62652;42.274;-71.436;2023-04-24T03:35:00;0.00;0.00;0.00
64861;PMS5003;62652;42.274;-71.436;2023-04-24T03:36:00;0.27;0.00;0.00
64861;PMS5003;62652;42.274;-71.436;2023-04-24T03:37:00;0.00;0.00;0.00
64861;PMS5003;62652;42.274;-71.436;2023-04-24T03:38:00;0.00;0.00;0.00
64861;PMS5003;62652;42.274;-71.436;2023-04-24T03:39:00;0.00;0.00;0.00
64861;PMS5003;62652;42.274;-71.436;2023-04-24T03:40:00;0.00;0.00;0.00
64861;PMS5003;62652;42.274;-71.436;2023-04-24T03:41:00;0.13;0.00;0.00
64861;PMS5003;62652;42.274;-71.436;2023-04-24T03:42:00;0.00;0.00;0.00
64861;PMS5003;62652;42.274;-71.436;2023-04-24T03:43:00;0.13;0.00;0.00
64861;PMS5003;62652;42.274;-71.436;2023-04-24T03:44:00;0.00;0.00;0.00
64861;PMS5003;62652;42.274;-71.436;2023-04-24T03:45:00;0.00;0.00;0.00
64861;PMS5003;62652;42.274;-71.436;2023-04-24T03:46:00;0.07;0.00;0.00
64861;PMS5003;62652;42.274;-71.436;2023-04-24T03:47:00;0.00;0.00;0.00
64861;PMS5003;62652;42.274;-71.436;2023-04-24T03:48:01;0.00;0.00;0.00
64861;PMS5003;62652;42.274;-71.436;2023-04-24T03:49:00;0.00;0.00;0.00
64861;PMS5003;62652;42.274;-71.436;2023-04-24T03:50:01;0.00;0.00;0.00
64861;PMS5003;62652;42.274;-71.436;2023-04-24T03:51:00;0.00;0.00;0.00
64861;PMS5003;62652;42.274;-71.436;2023-04-24T03:52:00;0.00;0.00;0.00
64861;PMS5003;62652;42.274;-71.436;2023-04-24T03:53:00;0.00;0.00;0.00
64861;PMS5003;62652;42.274;-71.436;2023-04-24T03:54:00;0.00;0.00;0.00
64861;PMS5003;62652;42.274;-71.436;2023-04-24T03:55:00;0.00;0.00;0.00
64861;PMS5003;62652;42.274;-71.436;2023-04-24T03:56:00;0.27;0.27;0.20
64861;PMS5003;62652;42.274;-71.436;2023-04-24T03:57:00;0.00;0.00;0.00
64861;PMS5003;62652;42.274;-71.436;2023-04-24T03:58:00;0.00;0.00;0.00
64861;PMS5003;62652;42.274;-71.436;2023-04-24T03:59:01;0.00;0.00;0.00
64861;PMS5003;62652;42.274;-71.436;2023-04-24T04:00:00;0.00;0.00;0.00
64861;PMS5003;62652;42.274;-71.436;2023-04-24T04:01:00;0.00;0.00;0.00
64861;PMS5003;62652;42.274;-71.436;2023-04-24T04:02:00;0.00;0.00;0.00
64861;PMS5003;62652;42.274;-71.436;2023-04-24T04:03:00;0.00;0.00;0.00
64861;PMS5003;62652;42.274;-71.436;2023-04-24T04:04:00;0.00;0.00;0.00
64861;PMS5003;62652;42.274;-71.436;2023-04-24T04:05:00;0.00;0.00;0.00
64861;PMS5003;62652;42.274;-71.436;2023-04-24T04:06:00;0.00;0.00;0.00
64861;PMS5003;62652;42.274;-71.436;2023-04-24T04:07:00;0.00;0.00;0.00
64861;PMS5003;62652;42.274;-71.436;2023-04-24T04:08:00;0.00;0.00;0.00
64861;PMS5003;62652;42.274;-71.436;2023-04-24T04:09:00;0.00;0.00;0.00
64861;PMS5003;62652;42.274;-71.436;2023-04-24T04:10:01;0.00;0.00;0.00
64861;PMS5003;62652;42.274;-71.436;2023-04-24T04:11:00;0.00;0.00;0.00
64861;PMS5003;62652;42.274;-71.436;2023-04-24T04:12:00;0.00;0.00;0.00
64861;PMS5003;62652;42.274;-71.436;2023-04-24T04:13:00;0.00;0.00;0.00
64861;PMS5003;62652;42.274;-71.436;2023-04-24T04:14:00;0.63;0.63;0.00
64861;PMS5003;62652;42.274;-71.436;2023-04-24T04:15:00;0.00;0.00;0.00
64861;PMS5003;62652;42.274;-71.436;2023-04-24T04:16:00;0.00;0.00;0.00
64861;PMS5003;62652;42.274;-71.436;2023-04-24T04:17:00;3.83;2.90;1.87
64861;PMS5003;62652;42.274;-71.436;2023-04-24T04:18:00;11.47;7.23;2.97
64861;PMS5003;62652;42.274;-71.436;2023-04-24T04:19:00;28.70;19.40;9.17
64861;PMS5003;62652;42.274;-71.436;2023-04-24T04:20:00;44.73;28.50;12.03
64861;PMS5003;62652;42.274;-71.436;2023-04-24T04:21:01;26.03;18.30;8.90
64861;PMS5003;62652;42.274;-71.436;2023-04-24T04:22:00;56.50;36.43;17.50
64861;PMS5003;62652;42.274;-71.436;2023-04-24T04:23:00;49.37;30.77;14.37
64861;PMS5003;62652;42.274;-71.436;2023-04-24T04:24:00;41.73;28.53;14.27
64861;PMS5003;62652;42.274;-71.436;2023-04-24T04:25:00;40.20;31.67;16.40
64861;PMS5003;62652;42.274;-71.436;2023-04-24T04:26:00;33.57;23.63;10.93
64861;PMS5003;62652;42.274;-71.436;2023-04-24T04:27:00;35.07;23.47;11.10
64861;PMS5003;62652;42.274;-71.436;2023-04-24T04:28:00;74.83;44.97;21.80
64861;PMS5003;62652;42.274;-71.436;2023-04-24T04:29:00;29.17;22.33;8.47
64861;PMS5003;62652;42.274;-71.436;2023-04-24T04:30:00;54.13;33.50;16.80
64861;PMS5003;62652;42.274;-71.436;2023-04-24T04:31:00;40.53;26.90;11.07
64861;PMS5003;62652;42.274;-71.436;2023-04-24T04:32:01;66.20;43.47;20.43
64861;PMS5003;62652;42.274;-71.436;2023-04-24T04:33:00;27.13;21.67;8.87
64861;PMS5003;62652;42.274;-71.436;2023-04-24T04:34:00;39.10;26.10;12.80
64861;PMS5003;62652;42.274;-71.436;2023-04-24T04:35:01;85.57;56.23;27.73
64861;PMS5003;62652;42.274;-71.436;2023-04-24T04:36:00;45.57;27.83;12.70
64861;PMS5003;62652;42.274;-71.436;2023-04-24T04:37:00;51.43;31.30;16.00
64861;PMS5003;62652;42.274;-71.436;2023-04-24T04:38:00;18.03;13.23;5.63
64861;PMS5003;62652;42.274;-71.436;2023-04-24T04:39:00;25.70;19.80;8.67
64861;PMS5003;62652;42.274;-71.436;2023-04-24T04:40:01;3.83;3.13;1.17
64861;PMS5003;62652;42.274;-71.436;2023-04-24T04:41:00;62.40;39.77;19.03
64861;PMS5003;62652;42.274;-71.436;2023-04-24T04:42:00;24.50;17.97;6.50
64861;PMS5003;62652;42.274;-71.436;2023-04-24T04:43:01;37.53;23.57;9.37
64861;PMS5003;62652;42.274;-71.436;2023-04-24T04:44:00;7.83;6.63;2.93
64861;PMS5003;62652;42.274;-71.436;2023-04-24T04:45:00;4.87;3.80;1.60
64861;PMS5003;62652;42.274;-71.436;2023-04-24T04:46:00;0.13;0.13;0.00
64861;PMS5003;62652;42.274;-71.436;2023-04-24T04:47:00;3.60;3.53;1.30
64861;PMS5003;62652;42.274;-71.436;2023-04-24T04:48:00;0.00;0.00;0.00
64861;PMS5003;62652;42.274;-71.436;2023-04-24T04:49:01;0.00;0.00;0.00
64861;PMS5003;62652;42.274;-71.436;2023-04-24T04:50:00;0.00;0.00;0.00
64861;PMS5003;62652;42.274;-71.436;2023-04-24T04:51:00;0.00;0.00;0.00
64861;PMS5003;62652;42.274;-71.436;2023-04-24T04:52:00;0.00;0.00;0.00
64861;PMS5003;62652;42.274;-71.436;2023-04-24T04:53:00;0.00;0.00;0.00
64861;PMS5003;62652;42.274;-71.436;2023-04-24T04:54:01;0.00;0.00;0.00
64861;PMS5003;62652;42.274;-71.436;2023-04-24T04:55:00;0.00;0.00;0.00
64861;PMS5003;62652;42.274;-71.436;2023-04-24T04:56:00;0.00;0.00;0.00
64861;PMS5003;62652;42.274;-71.436;2023-04-24T04:57:00;0.00;0.00;0.00
64861;PMS5003;62652;42.274;-71.436;2023-04-24T04:58:00;0.00;0.00;0.00
64861;PMS5003;62652;42.274;-71.436;2023-04-24T04:59:00;0.00;0.00;0.00
64861;PMS5003;62652;42.274;-71.436;2023-04-24T05:00:00;0.00;0.00;0.00
64861;PMS5003;62652;42.274;-71.436;2023-04-24T05:01:00;0.00;0.00;0.00
64861;PMS5003;62652;42.274;-71.436;2023-04-24T05:02:00;0.00;0.00;0.00
64861;PMS5003;62652;42.274;-71.436;2023-04-24T05:03:00;0.00;0.00;0.00
64861;PMS5003;62652;42.274;-71.436;2023-04-24T05:04:00;0.00;0.00;0.00
64861;PMS5003;62652;42.274;-71.436;2023-04-24T05:05:01;0.00;0.00;0.00
64861;PMS5003;62652;42.274;-71.436;2023-04-24T05:06:00;0.00;0.00;0.00
64861;PMS5003;62652;42.274;-71.436;2023-04-24T05:07:00;0.00;0.00;0.00
64861;PMS5003;62652;42.274;-71.436;2023-04-24T05:08:00;0.07;0.07;0.07
64861;PMS5003;62652;42.274;-71.436;2023-04-24T05:09:00;0.00;0.00;0.00
64861;PMS5003;62652;42.274;-71.436;2023-04-24T05:10:00;0.00;0.00;0.00
64861;PMS5003;62652;42.274;-71.436;2023-04-24T05:11:00;0.00;0.00;0.00
64861;PMS5003;62652;42.274;-71.436;2023-04-24T05:12:00;0.00;0.00;0.00
64861;PMS5003;62652;42.274;-71.436;2023-04-24T05:13:00;0.00;0.00;0.00
64861;PMS5003;62652;42.274;-71.436;2023-04-24T05:14:00;0.00;0.00;0.00
64861;PMS5003;62652;42.274;-71.436;2023-04-24T05:15:00;0.00;0.00;0.00
64861;PMS5003;62652;42.274;-71.436;2023-04-24T05:16:01;0.00;0.00;0.00
64861;PMS5003;62652;42.274;-71.436;2023-04-24T05:17:00;0.00;0.00;0.00
64861;PMS5003;62652;42.274;-71.436;2023-04-24T05:18:00;0.00;0.00;0.00
64861;PMS5003;62652;42.274;-71.436;2023-04-24T05:19:00;0.00;0.00;0.00
64861;PMS5003;62652;42.274;-71.436;2023-04-24T05:20:00;0.00;0.00;0.00
64861;PMS5003;62652;42.274;-71.436;2023-04-24T05:21:00;0.00;0.00;0.00
64861;PMS5003;62652;42.274;-71.436;2023-04-24T05:22:00;0.00;0.00;0.00
64861;PMS5003;62652;42.274;-71.436;2023-04-24T05:23:00;0.00;0.00;0.00
64861;PMS5003;62652;42.274;-71.436;2023-04-24T05:24:00;0.00;0.00;0.00
64861;PMS5003;62652;42.274;-71.436;2023-04-24T05:25:00;0.00;0.00;0.00
64861;PMS5003;62652;42.274;-71.436;2023-04-24T05:26:00;0.00;0.00;0.00
64861;PMS5003;62652;42.274;-71.436;2023-04-24T05:27:00;0.00;0.00;0.00
64861;PMS5003;62652;42.274;-71.436;2023-04-24T05:28:00;0.00;0.00;0.00
64861;PMS5003;62652;42.274;-71.436;2023-04-24T05:29:00;0.00;0.00;0.00
64861;PMS5003;62652;42.274;-71.436;2023-04-24T05:30:00;0.00;0.00;0.00
64861;PMS5003;62652;42.274;-71.436;2023-04-24T05:31:00;0.00;0.00;0.00
64861;PMS5003;62652;42.274;-71.436;2023-04-24T05:32:00;0.00;0.00;0.00
64861;PMS5003;62652;42.274;-71.436;2023-04-24T05:33:00;0.00;0.00;0.00
64861;PMS5003;62652;42.274;-71.436;2023-04-24T05:34:00;0.00;0.00;0.00
64861;PMS5003;62652;42.274;-71.436;2023-04-24T05:35:00;0.00;0.00;0.00
64861;PMS5003;62652;42.274;-71.436;2023-04-24T05:36:00;0.00;0.00;0.00
64861;PMS5003;62652;42.274;-71.436;2023-04-24T05:37:00;0.00;0.00;0.00
64861;PMS5003;62652;42.274;-71.436;2023-04-24T05:38:00;0.00;0.00;0.00
64861;PMS5003;62652;42.274;-71.436;2023-04-24T05:39:00;0.00;0.00;0.00
64861;PMS5003;62652;42.274;-71.436;2023-04-24T05:40:00;0.00;0.00;0.00